createdAt,value
2019-01-15T00:00:52.158Z,98564.24
2019-01-15T00:03:21.511Z,98559.06
2019-01-15T00:05:51.256Z,98570.66
2019-01-15T00:08:20.669Z,98574.36
2019-01-15T00:10:50.029Z,98568.98
2019-01-15T00:13:19.428Z,98570.16
2019-01-15T00:15:48.815Z,98573.66
2019-01-15T00:18:18.174Z,98573.66
2019-01-15T00:20:47.702Z,98570.16
2019-01-15T00:23:17.122Z,98580.91
2019-01-15T00:25:46.419Z,98581.41
2019-01-15T00:28:15.863Z,98571.80
2019-01-15T00:30:45.218Z,98587.63
2019-01-15T00:33:14.555Z,98593.02
2019-01-15T00:35:43.951Z,98588.98
2019-01-15T00:38:13.332Z,98597.85
2019-01-15T00:40:42.700Z,98586.29
2019-01-15T00:43:12.161Z,98595.16
2019-01-15T00:45:41.557Z,98589.48
2019-01-15T00:48:11.082Z,98601.75
2019-01-15T00:50:40.467Z,98609.67
2019-01-15T00:53:09.910Z,98587.86
2019-01-15T00:55:39.344Z,98610.06
2019-01-15T00:58:08.743Z,98606.53
2019-01-15T01:00:38.092Z,98608.05
2019-01-15T01:03:07.497Z,98611.77
2019-01-15T01:05:36.958Z,98617.31
2019-01-15T01:08:06.398Z,98623.19
2019-01-15T01:10:35.837Z,98634.78
2019-01-15T01:13:05.622Z,98633.44
2019-01-15T01:15:35.025Z,98632.94
2019-01-15T01:18:04.528Z,98641.01
2019-01-15T01:20:35.114Z,98638.82
2019-01-15T01:23:05.073Z,98653.11
2019-01-15T01:25:34.510Z,98638.31
2019-01-15T01:28:03.957Z,98644.53
2019-01-15T01:30:33.374Z,98651.26
2019-01-15T01:33:03.026Z,98650.41
2019-01-15T01:35:32.539Z,98657.98
2019-01-15T01:38:01.975Z,98662.52
2019-01-15T01:40:31.366Z,98661.67
2019-01-15T01:43:00.710Z,98673.77
2019-01-15T01:45:30.099Z,98678.14
2019-01-15T01:47:59.543Z,98685.70
2019-01-15T01:50:28.933Z,98675.45
2019-01-15T01:52:58.315Z,98694.61
2019-01-15T01:55:27.686Z,98693.27
2019-01-15T01:57:57.058Z,98700.49
2019-01-15T02:00:26.420Z,98712.39
2019-01-15T02:02:55.848Z,98697.61
2019-01-15T02:05:25.327Z,98710.55
2019-01-15T02:07:54.694Z,98699.45
2019-01-15T02:10:24.108Z,98715.59
2019-01-15T02:12:53.542Z,98718.61
2019-01-15T02:15:26.254Z,98707.86
2019-01-15T02:17:55.794Z,98720.46
2019-01-15T02:20:25.543Z,98722.98
2019-01-15T02:22:54.909Z,98731.55
2019-01-15T02:25:24.273Z,98725.67
2019-01-15T02:27:54.871Z,98729.52
2019-01-15T02:30:26.444Z,98717.91
2019-01-15T02:32:55.809Z,98721.45
2019-01-15T02:35:25.842Z,98738.42
2019-01-15T02:37:55.270Z,98727.97
2019-01-15T02:40:24.657Z,98733.88
2019-01-15T02:42:54.036Z,98743.44
2019-01-15T02:45:23.853Z,98732.16
2019-01-15T02:47:53.234Z,98746.58
2019-01-15T02:50:23.158Z,98748.58
2019-01-15T02:52:52.551Z,98756.98
2019-01-15T02:55:21.941Z,98761.36
2019-01-15T02:57:51.361Z,98751.45
2019-01-15T03:00:27.450Z,98763.86
2019-01-15T03:02:56.817Z,98776.30
2019-01-15T03:05:26.163Z,98781.84
2019-01-15T03:07:55.577Z,98785.70
2019-01-15T03:10:25.110Z,98786.55
2019-01-15T03:12:56.387Z,98786.55
2019-01-15T03:15:26.184Z,98786.86
2019-01-15T03:17:55.573Z,98781.32
2019-01-15T03:20:24.957Z,98795.92
2019-01-15T03:22:54.323Z,98789.53
2019-01-15T03:25:23.725Z,98789.53
2019-01-15T03:27:53.181Z,98793.88
2019-01-15T03:30:24.426Z,98804.97
2019-01-15T03:32:54.055Z,98806.31
2019-01-15T03:35:23.737Z,98810.85
2019-01-15T03:37:53.548Z,98811.50
2019-01-15T03:40:27.063Z,98821.42
2019-01-15T03:43:03.660Z,98809.85
2019-01-15T03:45:28.359Z,98796.91
2019-01-15T03:47:57.711Z,98812.54
2019-01-15T03:50:27.107Z,98818.73
2019-01-15T03:52:56.441Z,98829.48
2019-01-15T03:55:25.923Z,98833.02
2019-01-15T03:57:55.430Z,98836.89
2019-01-15T04:00:26.198Z,98831.82
2019-01-15T04:02:56.509Z,98833.17
2019-01-15T04:05:25.959Z,98849.30
2019-01-15T04:07:59.651Z,98843.93
2019-01-15T04:10:29.157Z,98845.77
2019-01-15T04:12:58.605Z,98848.47
2019-01-15T04:15:27.875Z,98868.83
2019-01-15T04:17:57.354Z,98871.02
2019-01-15T04:20:26.709Z,98860.26
2019-01-15T04:22:56.106Z,98869.17
2019-01-15T04:25:25.621Z,98871.86
2019-01-15T04:27:54.959Z,98875.90
2019-01-15T04:30:25.027Z,98889.00
2019-01-15T04:32:54.568Z,98894.04
2019-01-15T04:35:24.013Z,98898.77
2019-01-15T04:37:53.359Z,98900.30
2019-01-15T04:40:23.366Z,98904.84
2019-01-15T04:42:52.842Z,98897.97
2019-01-15T04:45:23.786Z,98909.41
2019-01-15T04:47:53.394Z,98908.08
2019-01-15T04:50:22.714Z,98912.11
2019-01-15T04:52:55.565Z,98912.11
2019-01-15T04:55:25.013Z,98927.90
2019-01-15T04:57:54.450Z,98920.33
2019-01-15T05:00:23.788Z,98927.59
2019-01-15T05:02:53.981Z,98917.64
2019-01-15T05:05:23.371Z,98927.25
2019-01-15T05:07:52.747Z,98932.63
2019-01-15T05:10:22.181Z,98932.63
2019-01-15T05:12:51.569Z,98939.16
2019-01-15T05:15:20.904Z,98939.16
2019-01-15T05:17:50.251Z,98950.95
2019-01-15T05:20:19.655Z,98956.98
2019-01-15T05:22:49.253Z,98960.52
2019-01-15T05:25:20.023Z,98960.17
2019-01-15T05:27:49.522Z,98967.23
2019-01-15T05:30:21.367Z,98968.08
2019-01-15T05:32:50.707Z,98964.36
2019-01-15T05:35:20.059Z,98961.67
2019-01-15T05:37:49.565Z,98965.70
2019-01-15T05:40:19.325Z,98965.20
2019-01-15T05:42:48.785Z,98968.55
2019-01-15T05:45:37.024Z,98969.73
2019-01-15T05:48:09.800Z,98979.45
2019-01-15T05:50:58.138Z,98981.65
2019-01-15T05:53:27.503Z,98991.06
2019-01-15T05:55:57.865Z,98982.30
2019-01-15T05:58:27.226Z,98996.41
2019-01-15T06:00:56.891Z,98995.25
2019-01-15T06:03:26.245Z,98999.94
2019-01-15T06:05:55.643Z,98998.94
2019-01-15T06:08:25.038Z,99006.51
2019-01-15T06:10:54.373Z,99009.20
2019-01-15T06:13:23.762Z,99021.30
2019-01-15T06:15:53.138Z,99028.88
2019-01-15T06:18:22.484Z,99032.72
2019-01-15T06:20:51.902Z,99034.06
2019-01-15T06:23:21.261Z,99040.10
2019-01-15T06:25:50.586Z,99043.45
2019-01-15T06:28:20.007Z,99052.20
2019-01-15T06:30:49.501Z,99049.67
2019-01-15T06:33:18.841Z,99060.90
2019-01-15T06:35:48.422Z,99072.34
2019-01-15T06:38:17.768Z,99063.74
2019-01-15T06:40:47.114Z,99081.08
2019-01-15T06:43:16.517Z,99076.20
2019-01-15T06:45:45.911Z,99087.30
2019-01-15T06:48:15.266Z,99086.95
2019-01-15T06:50:44.658Z,99086.95
2019-01-15T06:53:14.025Z,99098.06
2019-01-15T06:55:43.425Z,99092.34
2019-01-15T06:58:12.924Z,99095.38
2019-01-15T07:00:42.330Z,99101.76
2019-01-15T07:03:11.681Z,99103.95
2019-01-15T07:05:41.069Z,99107.14
2019-01-15T07:08:10.488Z,99106.30
2019-01-15T07:10:40.470Z,99107.83
2019-01-15T07:13:09.941Z,99105.80
2019-01-15T07:15:39.299Z,99106.48
2019-01-15T07:18:08.733Z,99114.73
2019-01-15T07:20:38.109Z,99117.09
2019-01-15T07:23:07.497Z,99118.62
2019-01-15T07:25:36.832Z,99127.69
2019-01-15T07:28:06.547Z,99123.00
2019-01-15T07:30:56.121Z,99140.67
2019-01-15T07:33:30.373Z,99145.05
2019-01-15T07:35:59.742Z,99143.02
2019-01-15T07:38:29.101Z,99149.41
2019-01-15T07:40:58.498Z,99157.63
2019-01-15T07:43:27.910Z,99164.67
2019-01-15T07:45:57.351Z,99167.18
2019-01-15T07:48:26.746Z,99152.22
2019-01-15T07:50:56.152Z,99157.92
2019-01-15T07:53:25.579Z,99150.69
2019-01-15T07:55:54.956Z,99162.64
2019-01-15T07:58:24.460Z,99154.89
2019-01-15T08:00:53.822Z,99154.89
2019-01-15T08:03:23.180Z,99154.58
2019-01-15T08:05:52.678Z,99155.92
2019-01-15T08:08:22.017Z,99149.84
2019-01-15T08:10:56.972Z,99160.11
2019-01-15T08:13:22.613Z,99164.99
2019-01-15T08:15:51.976Z,99169.22
2019-01-15T08:18:21.327Z,99175.25
2019-01-15T08:20:50.823Z,99172.59
2019-01-15T08:23:20.147Z,99177.31
2019-01-15T08:25:49.518Z,99171.23
2019-01-15T08:28:18.891Z,99168.07
2019-01-15T08:30:48.284Z,99166.38
2019-01-15T08:33:17.668Z,99167.41
2019-01-15T08:35:47.012Z,99169.41
2019-01-15T08:38:16.391Z,99163.19
2019-01-15T08:40:45.756Z,99159.15
2019-01-15T08:43:15.120Z,99161.52
2019-01-15T08:45:44.525Z,99164.72
2019-01-15T08:48:16.226Z,99165.72
2019-01-15T08:50:46.066Z,99167.06
2019-01-15T08:53:17.113Z,99167.06
2019-01-15T08:55:46.733Z,99152.27
2019-01-15T08:58:16.130Z,99163.02
2019-01-15T09:00:46.398Z,99153.30
2019-01-15T09:03:15.830Z,99160.02
2019-01-15T09:05:45.200Z,99161.02
2019-01-15T09:08:14.618Z,99160.52
2019-01-15T09:10:44.001Z,99162.86
2019-01-15T09:13:13.370Z,99160.52
2019-01-15T09:15:42.760Z,99154.30
2019-01-15T09:18:12.160Z,99149.95
2019-01-15T09:20:41.623Z,99148.07
2019-01-15T09:23:11.093Z,99150.27
2019-01-15T09:25:40.440Z,99150.77
2019-01-15T09:28:09.892Z,99158.33
2019-01-15T09:30:39.314Z,99154.80
2019-01-15T09:33:08.739Z,99152.64
2019-01-15T09:35:38.186Z,99158.83
2019-01-15T09:38:08.364Z,99157.48
2019-01-15T09:40:37.749Z,99154.80
2019-01-15T09:43:07.099Z,99152.64
2019-01-15T09:45:36.501Z,99152.29
2019-01-15T09:48:15.821Z,99154.80
2019-01-15T09:50:45.236Z,99140.19
2019-01-15T09:53:14.700Z,99139.84
2019-01-15T09:55:44.214Z,99137.15
2019-01-15T09:58:13.628Z,99143.22
2019-01-15T10:00:43.068Z,99141.88
2019-01-15T10:03:12.455Z,99149.09
2019-01-15T10:05:42.023Z,99140.53
2019-01-15T10:08:11.756Z,99149.09
2019-01-15T10:10:41.239Z,99145.56
2019-01-15T10:13:10.699Z,99147.57
2019-01-15T10:15:40.055Z,99149.08
2019-01-15T10:18:09.400Z,99144.38
2019-01-15T10:20:38.851Z,99143.53
2019-01-15T10:23:08.284Z,99137.16
2019-01-15T10:25:38.176Z,99140.16
2019-01-15T10:28:07.770Z,99142.35
2019-01-15T10:31:21.101Z,99146.23
2019-01-15T10:34:04.859Z,99147.58
2019-01-15T10:36:32.489Z,99148.08
2019-01-15T10:39:01.821Z,99155.30
2019-01-15T10:41:31.209Z,99152.61
2019-01-15T10:44:00.543Z,99146.89
2019-01-15T10:46:32.072Z,99145.04
2019-01-15T10:49:00.975Z,99145.89
2019-01-15T10:51:30.360Z,99146.39
2019-01-15T10:53:59.818Z,99142.03
2019-01-15T10:56:29.473Z,99146.39
2019-01-15T10:58:59.020Z,99141.00
2019-01-15T11:01:28.415Z,99145.89
2019-01-15T11:03:57.840Z,99142.85
2019-01-15T11:06:27.212Z,99138.81
2019-01-15T11:08:56.660Z,99137.47
2019-01-15T11:11:26.048Z,99139.84
2019-01-15T11:13:55.412Z,99132.09
2019-01-15T11:16:24.810Z,99138.00
2019-01-15T11:18:54.156Z,99132.94
2019-01-15T11:21:23.609Z,99133.97
2019-01-15T11:23:53.135Z,99136.12
2019-01-15T11:26:22.540Z,99124.02
2019-01-15T11:28:52.013Z,99128.05
2019-01-15T11:31:21.501Z,99127.91
2019-01-15T11:33:50.848Z,99132.94
2019-01-15T11:36:20.196Z,99131.59
2019-01-15T11:38:49.961Z,99123.02
2019-01-15T11:41:19.299Z,99122.67
2019-01-15T11:43:48.635Z,99120.17
2019-01-15T11:46:18.080Z,99120.17
2019-01-15T11:48:47.880Z,99113.45
2019-01-15T11:51:17.265Z,99117.98
2019-01-15T11:53:46.634Z,99121.02
2019-01-15T11:56:16.024Z,99121.52
2019-01-15T11:58:45.948Z,99112.60
2019-01-15T12:01:21.399Z,99120.17
2019-01-15T12:04:09.681Z,99115.63
2019-01-15T12:07:03.804Z,99121.20
2019-01-15T12:09:55.048Z,99114.81
2019-01-15T12:13:01.809Z,99112.81
2019-01-15T12:15:39.594Z,99115.84
2019-01-15T12:18:26.877Z,99122.41
2019-01-15T12:21:08.448Z,99121.05
2019-01-15T12:23:55.439Z,99124.43
2019-01-15T12:26:37.075Z,99122.74
2019-01-15T12:29:37.764Z,99128.12
2019-01-15T12:32:23.873Z,99116.52
2019-01-15T12:35:10.973Z,99116.52
2019-01-15T12:38:11.689Z,99106.61
2019-01-15T12:41:02.709Z,99088.13
2019-01-15T12:43:59.781Z,99090.81
2019-01-15T12:46:46.629Z,99087.28
2019-01-15T12:49:41.156Z,99084.41
2019-01-15T12:52:29.490Z,99091.82
2019-01-15T12:55:16.282Z,99081.73
2019-01-15T12:58:04.029Z,99081.03
2019-01-15T13:00:51.068Z,99072.81
2019-01-15T13:03:54.215Z,99076.31
2019-01-15T13:06:54.295Z,99077.32
2019-01-15T13:09:35.339Z,99067.41
2019-01-15T13:12:23.738Z,99080.02
2019-01-15T13:15:10.432Z,99073.10
2019-01-15T13:17:48.074Z,99072.91
2019-01-15T13:20:27.928Z,99069.03
2019-01-15T13:23:31.338Z,99071.91
2019-01-15T13:26:19.172Z,99066.84
2019-01-15T13:29:07.530Z,99067.34
2019-01-15T13:32:01.586Z,99076.58
2019-01-15T13:34:55.720Z,99073.20
2019-01-15T13:37:53.081Z,99078.23
2019-01-15T13:40:29.598Z,99078.89
2019-01-15T13:43:20.701Z,99083.27
2019-01-15T13:46:11.808Z,99078.89
2019-01-15T13:48:58.741Z,99087.62
2019-01-15T13:51:57.087Z,99091.49
2019-01-15T13:54:53.924Z,99088.14
2019-01-15T13:57:42.215Z,99092.84
2019-01-15T14:00:27.766Z,99088.11
2019-01-15T14:03:06.099Z,99086.87
2019-01-15T14:06:00.051Z,99082.30
2019-01-15T14:08:43.647Z,99082.95
2019-01-15T14:11:43.772Z,99088.64
2019-01-15T14:14:32.053Z,99085.09
2019-01-15T14:17:13.767Z,99082.55
2019-01-15T14:20:04.601Z,99077.83
2019-01-15T14:22:44.536Z,99077.66
2019-01-15T14:25:31.168Z,99072.09
2019-01-15T14:28:18.459Z,99069.20
2019-01-15T14:31:05.562Z,99067.00
2019-01-15T14:33:55.431Z,99055.87
2019-01-15T14:36:37.248Z,99053.13
2019-01-15T14:39:29.733Z,99049.92
2019-01-15T14:42:27.304Z,99049.54
2019-01-15T14:45:15.647Z,99046.48
2019-01-15T14:48:16.068Z,99049.02
2019-01-15T14:51:03.236Z,99051.52
2019-01-15T14:53:51.724Z,99051.02
2019-01-15T14:56:43.191Z,99045.44
2019-01-15T14:59:30.553Z,99051.20
2019-01-15T15:02:28.223Z,99048.30
2019-01-15T15:05:22.170Z,99049.16
2019-01-15T15:08:16.121Z,99054.88
2019-01-15T15:11:13.163Z,99050.64
2019-01-15T15:13:59.950Z,99047.95
2019-01-15T15:17:06.262Z,99051.15
2019-01-15T15:19:52.978Z,99055.72
2019-01-15T15:22:40.007Z,99053.53
2019-01-15T15:25:29.772Z,99050.84
2019-01-15T15:28:27.059Z,99050.64
2019-01-15T15:31:15.482Z,99041.55
2019-01-15T15:34:02.900Z,99048.29
2019-01-15T15:36:51.337Z,99049.66
2019-01-15T15:39:54.755Z,99049.84
2019-01-15T15:42:32.825Z,99047.48
2019-01-15T15:45:08.719Z,99046.84
2019-01-15T15:48:00.146Z,99048.43
2019-01-15T15:50:52.903Z,99051.28
2019-01-15T15:53:39.776Z,99048.59
2019-01-15T15:56:26.591Z,99047.59
2019-01-15T15:59:18.027Z,99040.86
2019-01-15T16:01:55.031Z,99037.66
2019-01-15T16:04:41.971Z,99042.51
2019-01-15T16:07:28.993Z,99036.96
2019-01-15T16:10:11.497Z,99041.84
2019-01-15T16:12:48.993Z,99043.50
2019-01-15T16:15:37.119Z,99040.11
2019-01-15T16:18:24.901Z,99040.45
2019-01-15T16:21:08.539Z,99036.05
2019-01-15T16:24:02.904Z,99035.55
2019-01-15T16:27:00.354Z,99027.27
2019-01-15T16:29:47.370Z,99026.58
2019-01-15T16:32:44.632Z,99033.48
2019-01-15T16:35:42.060Z,99036.16
2019-01-15T16:38:23.728Z,99035.81
2019-01-15T16:41:09.582Z,99043.34
2019-01-15T16:44:16.582Z,99042.78
2019-01-15T16:47:08.170Z,99040.23
2019-01-15T16:50:02.860Z,99044.47
2019-01-15T16:52:54.249Z,99038.88
2019-01-15T16:55:36.577Z,99040.87
2019-01-15T16:58:40.279Z,99044.76
2019-01-15T17:01:27.979Z,99041.87
2019-01-15T17:04:31.357Z,99044.20
2019-01-15T17:07:15.788Z,99046.20
2019-01-15T17:10:07.132Z,99048.89
2019-01-15T17:13:04.570Z,99046.03
2019-01-15T17:15:51.904Z,99052.94
2019-01-15T17:18:30.511Z,99052.43
2019-01-15T17:21:25.047Z,99050.94
2019-01-15T17:24:02.293Z,99051.78
2019-01-15T17:27:02.764Z,99049.28
2019-01-15T17:29:51.249Z,99042.20
2019-01-15T17:32:39.167Z,99041.36
2019-01-15T17:35:31.540Z,99041.70
2019-01-15T17:38:18.658Z,99035.81
2019-01-15T17:41:12.637Z,99049.93
2019-01-15T17:44:03.564Z,99041.65
2019-01-15T17:46:54.712Z,99040.14
2019-01-15T17:49:46.140Z,99044.83
2019-01-15T17:52:32.347Z,99040.28
2019-01-15T17:55:13.267Z,99049.52
2019-01-15T17:58:00.878Z,99044.62
2019-01-15T18:00:57.854Z,99048.87
2019-01-15T18:03:42.123Z,99044.34
2019-01-15T18:06:29.584Z,99043.50
2019-01-15T18:09:16.577Z,99045.19
2019-01-15T18:12:03.805Z,99052.77
2019-01-15T18:15:01.149Z,99051.22
2019-01-15T18:18:01.815Z,99043.64
2019-01-15T18:20:49.799Z,99052.77
2019-01-15T18:23:47.302Z,99051.73
2019-01-15T18:26:35.667Z,99054.26
2019-01-15T18:29:26.401Z,99057.80
2019-01-15T18:32:30.023Z,99063.19
2019-01-15T18:35:17.366Z,99064.00
2019-01-15T18:38:06.231Z,99067.40
2019-01-15T18:41:06.799Z,99070.29
2019-01-15T18:43:54.062Z,99075.03
2019-01-15T18:46:41.151Z,99073.84
2019-01-15T18:49:29.533Z,99074.05
2019-01-15T18:52:27.049Z,99070.50
2019-01-15T18:55:24.389Z,99077.75
2019-01-15T18:58:13.626Z,99080.44
2019-01-15T19:01:11.648Z,99078.92
2019-01-15T19:04:06.023Z,99079.58
2019-01-15T19:07:06.913Z,99084.07
2019-01-15T19:09:54.086Z,99090.16
2019-01-15T19:12:48.413Z,99077.05
2019-01-15T19:15:36.796Z,99084.48
2019-01-15T19:18:25.435Z,99089.53
2019-01-15T19:21:13.662Z,99087.53
2019-01-15T19:24:14.486Z,99097.47
2019-01-15T19:27:05.589Z,99096.52
2019-01-15T19:29:57.070Z,99097.86
2019-01-15T19:32:51.001Z,99099.06
2019-01-15T19:35:45.397Z,99094.17
2019-01-15T19:38:42.119Z,99092.48
2019-01-15T19:41:29.286Z,99085.95
2019-01-15T19:44:18.184Z,99091.84
2019-01-15T19:47:15.422Z,99094.70
2019-01-15T19:50:02.658Z,99101.43
2019-01-15T19:52:51.118Z,99110.86
2019-01-15T19:55:38.196Z,99115.44
2019-01-15T19:58:15.428Z,99124.87
2019-01-15T20:01:06.566Z,99127.03
2019-01-15T20:03:51.751Z,99131.41
2019-01-15T20:07:04.130Z,99130.56
2019-01-15T20:09:51.064Z,99135.60
2019-01-15T20:12:51.484Z,99143.84
2019-01-15T20:15:39.914Z,99142.70
2019-01-15T20:18:26.948Z,99147.43
2019-01-15T20:21:15.380Z,99151.81
2019-01-15T20:24:02.614Z,99157.35
2019-01-15T20:26:59.990Z,99160.66
2019-01-15T20:29:47.386Z,99158.95
2019-01-15T20:32:34.796Z,99168.03
2019-01-15T20:35:23.947Z,99170.18
2019-01-15T20:38:30.309Z,99170.86
2019-01-15T20:41:17.220Z,99168.81
2019-01-15T20:43:56.550Z,99175.36
2019-01-15T20:46:43.535Z,99178.40
2019-01-15T20:49:30.843Z,99175.85
2019-01-15T20:52:28.735Z,99181.39
2019-01-15T20:55:14.695Z,99187.13
2019-01-15T20:58:15.383Z,99195.86
2019-01-15T21:01:06.895Z,99201.06
2019-01-15T21:03:53.814Z,99198.70
2019-01-15T21:06:36.524Z,99192.95
2019-01-15T21:09:33.775Z,99199.84
2019-01-15T21:12:35.757Z,99202.54
2019-01-15T21:15:22.245Z,99205.55
2019-01-15T21:18:13.509Z,99205.05
2019-01-15T21:20:54.887Z,99206.88
2019-01-15T21:23:42.099Z,99213.63
2019-01-15T21:26:29.142Z,99211.77
2019-01-15T21:29:15.804Z,99212.08
2019-01-15T21:32:06.951Z,99221.86
2019-01-15T21:35:01.368Z,99220.82
2019-01-15T21:37:48.658Z,99223.50
2019-01-15T21:40:35.871Z,99222.64
2019-01-15T21:43:36.660Z,99227.37
2019-01-15T21:46:25.041Z,99226.33
2019-01-15T21:49:17.136Z,99232.56
2019-01-15T21:52:03.824Z,99234.26
2019-01-15T21:54:50.944Z,99235.25
2019-01-15T21:57:39.059Z,99239.30
2019-01-15T22:00:32.190Z,99244.69
2019-01-15T22:03:26.589Z,99241.14
2019-01-15T22:06:24.329Z,99244.69
2019-01-15T22:09:12.811Z,99250.23
2019-01-15T22:12:00.098Z,99251.53
2019-01-15T22:14:48.535Z,99255.72
2019-01-15T22:17:39.634Z,99257.72
2019-01-15T22:20:26.988Z,99258.06
2019-01-15T22:23:18.594Z,99270.55
2019-01-15T22:26:06.325Z,99271.89
2019-01-15T22:28:58.441Z,99270.20
2019-01-15T22:31:46.838Z,99274.95
2019-01-15T22:34:37.997Z,99276.08
2019-01-15T22:37:35.266Z,99284.05
2019-01-15T22:40:33.795Z,99284.47
2019-01-15T22:43:25.298Z,99283.53
2019-01-15T22:46:13.736Z,99284.73
2019-01-15T22:49:01.495Z,99284.03
2019-01-15T22:51:48.587Z,99289.23
2019-01-15T22:54:35.785Z,99291.09
2019-01-15T22:57:36.224Z,99294.97
2019-01-15T23:00:34.127Z,99290.26
2019-01-15T23:03:11.290Z,99292.95
2019-01-15T23:06:11.647Z,99301.05
2019-01-15T23:08:59.936Z,99299.86
2019-01-15T23:11:40.992Z,99299.17
2019-01-15T23:14:31.915Z,99294.98
2019-01-15T23:17:38.555Z,99299.56
2019-01-15T23:20:26.696Z,99306.97
2019-01-15T23:23:17.834Z,99303.11
2019-01-15T23:26:24.106Z,99310.20
2019-01-15T23:29:11.422Z,99307.66
2019-01-15T23:32:02.480Z,99308.16
2019-01-15T23:34:45.483Z,99308.16
2019-01-15T23:37:31.395Z,99305.47
2019-01-15T23:40:25.522Z,99304.62
2019-01-15T23:43:16.702Z,99306.50
2019-01-15T23:46:03.974Z,99305.81
2019-01-15T23:48:52.213Z,99311.75
2019-01-15T23:51:46.675Z,99321.69
2019-01-15T23:54:38.039Z,99322.37
2019-01-15T23:57:41.696Z,99319.69
